Aeroporto :
LOGIN :

Iscrizione | Disclaimer

   EN    FR    IT 

 










Sommario :    VFR   VFR Marginale   IFR   IFR Intensivo   IFR Molto Intensivo
Visibilità : 
Base nubi : 
>= 8 km
>= 3000ft
5 / 8 km
1000 / 3000 ft
1500m / 5 km
500 / 1000 ft
800 / 1500m
200 / 500 ft
< 800m
< 200 ft
Simboli :   Temporali  Nebbia  Neve Forte  Precipitazioni Forti  Vento > 20 kt
SIGMETs :   Varie  Temporali  Ghiacco  Turbolenza  Onda orograficha  Ceneri Vulcaniche






- Altitudine del aeroporto : 187 ft


ETNW - Wunstorf AB

ULTIMO METAR :
  • 032220Z AUTO 15010KT 7000 // ////// 02/M02 Q0992 ///

METARs OBSOLETI :
  • 032120Z AUTO 18017KT 7000 // ////// 03/M01 Q0993 ///
  • 032020Z AUTO 14006KT 7000 // ////// 02/M01 Q0993 ///

TAF TAF ETNW
Valido dal 03 a 12 ore il 04 a 12 ore UTC


031120Z 0312/0412 15008KT 9999 NSW SCT015 BKN025
TEMPO 0312/0320 16010G20KT 6000 -RADZ BKN012 BKN030
TEMPO 0403/0407 11013G23KT 5000 -RA FEW010 BKN015 BKN040
PROB30 0403/0410 11015G28KT 8000 NSW FEW010 BKN050 BY ETGL



MetMap, La meteo Aeronautica in un colpo d'occhio ! - Copyright ORBIFLY Dicembre 2007 - Disclaimer

ORBIFLY MET'MAP TEAM :

Programmazione e sviluppo : Alexandra Zaïnal
Concezione : Baudouin d'Aumeries
Aiuto per la programmazione : Marc-Olivier Méhu
Supporto tecnico e logistico : Manuel Goepfert
Aiuto per la traduzione : Arnaldo La Scala

Contatto : metmap@orbifly.com




FONTI E CREDITI :

   NOAA